Charter Quote
Worldwide +44-20-3874-8091 Call
Select Language Lang
SAFETY RELIABILITY EXPERIENCE

De La Independencia Airport (SCRG) - Jet Charter Services

AIRPORT INFORMATION
ICAOSCRG
IATAQRC
LOCATIONRancagua, Chile
FACILITY TYPEAIRPORT
Runway Length (ft) Width (ft) Surface Type Elevation (ft)
21/03 5414 75 ASP 1445.04918

At Paramount Business Jets you can hire chartered private jets to and from De La Independencia Airport with as little as 4 hours of notice. All flights booked via Paramount Business Jets are operated by certified direct air carriers that meet and exceed the FAA part 135 and 121 protocol or a foreign equivalent safety authority. Furthermore, Paramount Business Jets subscribes to ARGUS for their third party safety checks of operators, aircraft, and crews prior each and every flight to and from De La Independencia Airport and worldwide.

  • Quote a trip using De La Independencia Airport or call us 24/7 - 365 days a year at +44-20-3874-8091.
Questions? Call +44-20-3874-8091

FBOs at De La Independencia Airport, SCRG, QRC

NAME ADDRESS PHONE WEBSITE
Fbo Aerocardal, Ltda.    (562) 377-7475   

METAR Weather Data at De La Independencia Airport, SCRG, QRC

STATIONSCRG
OBSERVEDThu Jun 20, 22:00 UTC
NOWFri Jun 21, 00:01 UTC
AGE2:01 hr ago
WINDSSW at 6 mph
VISIBILITY13 miles
METARSCRG 202200Z 20005KT 8000 NSC 13/06 Q1016

Call us on +44-20-3874-8091 (24 Hours) to Hire a Private Jet or Get a Quick Quote.

Find Airports Near any Location

Processing
...